Terminal Aerodrome Forecast
Issued by NWS Wakefield, VA

Home | Current Version | Previous Version | Text Only | Print | Product List | Glossary On
Versions: 1 2 3 4 5 6 7 8 9 10 11 12 13 14
000
FTUS41 KAKQ 270539
TAFSBY
TAF
KSBY 270539Z 2706/2806 35012G20KT P6SM BKN015 OVC035
     FM270800 35012KT P6SM OVC015
     FM271200 35010KT 4SM -RA BR OVC012
     FM272000 33010KT P6SM BKN020
     FM280000 31012KT P6SM BKN040=

USA.gov is the U.S. government's official web portal to all federal, state and local government web resources and services.